createdAt,value
2019-03-27T00:03:13.674Z,8.07
2019-03-27T00:08:17.622Z,6.53
2019-03-27T00:13:21.530Z,11.30
2019-03-27T00:18:24.640Z,8.93
2019-03-27T00:23:27.690Z,6.53
2019-03-27T00:28:30.714Z,7.03
2019-03-27T00:33:34.676Z,14.53
2019-03-27T00:38:37.702Z,7.73
2019-03-27T00:43:41.427Z,8.07
2019-03-27T00:48:45.110Z,12.77
2019-03-27T00:53:49.169Z,6.87
2019-03-27T00:58:52.450Z,5.20
2019-03-27T01:03:55.466Z,10.00
2019-03-27T01:08:58.453Z,8.63
2019-03-27T01:14:01.440Z,8.70
2019-03-27T01:19:04.424Z,11.13
2019-03-27T01:24:08.093Z,10.30
2019-03-27T01:29:12.209Z,8.03
2019-03-27T01:34:16.304Z,5.07
2019-03-27T01:39:19.443Z,5.93
2019-03-27T01:44:22.875Z,7.70
2019-03-27T01:49:26.779Z,8.20
2019-03-27T01:54:30.408Z,9.23
2019-03-27T01:59:34.029Z,6.37
2019-03-27T02:04:37.366Z,6.43
2019-03-27T02:09:40.665Z,6.80
2019-03-27T02:14:44.214Z,8.07
2019-03-27T02:19:47.683Z,8.70
2019-03-27T02:24:51.271Z,5.90
2019-03-27T02:29:54.256Z,8.07
2019-03-27T02:34:57.552Z,8.23
2019-03-27T02:40:00.917Z,7.07
2019-03-27T02:45:04.366Z,9.83
2019-03-27T02:50:07.563Z,10.60
2019-03-27T02:55:10.953Z,10.13
2019-03-27T03:00:15.190Z,8.47
2019-03-27T03:05:18.712Z,11.23
2019-03-27T03:10:22.149Z,9.60
2019-03-27T03:15:25.939Z,12.70
2019-03-27T03:20:29.585Z,12.77
2019-03-27T03:25:32.676Z,14.20
2019-03-27T03:30:35.922Z,13.80
2019-03-27T03:35:39.581Z,15.37
2019-03-27T03:40:43.116Z,14.60
2019-03-27T03:45:46.383Z,15.07
2019-03-27T03:50:52.074Z,13.67
2019-03-27T03:55:58.586Z,15.37
2019-03-27T04:01:02.516Z,14.63
2019-03-27T04:06:06.366Z,14.63
2019-03-27T04:11:10.356Z,17.17
2019-03-27T04:16:13.992Z,18.20
2019-03-27T04:21:17.564Z,17.83
2019-03-27T04:26:20.599Z,16.67
2019-03-27T04:31:25.442Z,14.30
2019-03-27T04:36:28.474Z,14.73
2019-03-27T04:41:32.463Z,15.97
2019-03-27T04:46:36.358Z,12.47
2019-03-27T04:51:40.107Z,15.10
2019-03-27T04:56:43.100Z,14.13
2019-03-27T05:01:47.262Z,11.03
2019-03-27T05:06:50.484Z,13.53
2019-03-27T05:11:53.549Z,10.57
2019-03-27T05:16:57.240Z,12.03
2019-03-27T05:22:01.392Z,13.63
2019-03-27T05:27:04.815Z,13.27
2019-03-27T05:32:07.887Z,15.57
2019-03-27T05:37:10.924Z,14.03
2019-03-27T05:42:14.259Z,11.40
2019-03-27T05:47:17.951Z,15.50
2019-03-27T05:52:22.198Z,17.37
2019-03-27T05:57:26.546Z,14.20
2019-03-27T06:02:29.549Z,20.17
2019-03-27T06:07:32.800Z,13.63
2019-03-27T06:12:36.771Z,13.43
2019-03-27T06:17:40.659Z,19.03
2019-03-27T06:22:43.976Z,18.60
2019-03-27T06:27:47.279Z,20.93
2019-03-27T06:32:50.360Z,18.13
2019-03-27T06:37:54.011Z,15.13
2019-03-27T06:42:57.967Z,19.83
2019-03-27T06:48:01.691Z,19.77
2019-03-27T06:53:05.263Z,18.60
2019-03-27T06:58:08.720Z,20.33
2019-03-27T07:03:11.749Z,17.57
2019-03-27T07:08:15.154Z,20.40
2019-03-27T07:13:18.347Z,21.23
2019-03-27T07:18:23.006Z,18.80
2019-03-27T07:23:27.319Z,25.00
2019-03-27T07:28:30.369Z,15.57
2019-03-27T07:33:34.457Z,15.80
2019-03-27T07:38:37.730Z,15.63
2019-03-27T07:43:40.752Z,15.60
2019-03-27T07:48:53.841Z,13.37
2019-03-27T07:53:49.657Z,14.60
2019-03-27T07:58:52.739Z,10.93
2019-03-27T08:03:55.875Z,10.67
2019-03-27T08:08:58.852Z,13.97
2019-03-27T08:14:01.917Z,12.00
2019-03-27T08:19:07.733Z,13.37
2019-03-27T08:24:10.520Z,13.80
2019-03-27T08:29:15.721Z,19.80
2019-03-27T08:34:19.329Z,11.10
2019-03-27T08:39:22.828Z,10.97
2019-03-27T08:44:26.514Z,13.17
2019-03-27T08:49:29.745Z,15.23
2019-03-27T08:54:33.402Z,14.90
2019-03-27T08:59:37.506Z,15.60
2019-03-27T09:04:41.241Z,16.03
2019-03-27T09:09:44.472Z,17.53
2019-03-27T09:14:47.491Z,14.30
2019-03-27T09:19:50.543Z,16.47
2019-03-27T09:24:53.972Z,11.67
2019-03-27T09:29:56.971Z,14.87
2019-03-27T09:35:00.395Z,12.20
2019-03-27T09:40:04.611Z,16.43
2019-03-27T09:45:09.029Z,14.43
2019-03-27T09:50:12.664Z,12.30
2019-03-27T09:55:15.878Z,14.67
2019-03-27T10:01:08.507Z,13.83
2019-03-27T10:06:11.554Z,12.07
2019-03-27T10:11:15.163Z,14.80
2019-03-27T10:16:18.678Z,14.37
2019-03-27T10:21:22.300Z,13.53
2019-03-27T10:26:25.323Z,13.13
2019-03-27T10:31:28.633Z,11.53
2019-03-27T10:36:32.142Z,11.70
2019-03-27T10:41:35.100Z,14.07
2019-03-27T10:46:39.037Z,17.27
2019-03-27T10:51:42.107Z,11.43
2019-03-27T10:56:45.438Z,8.53
2019-03-27T11:01:48.471Z,11.57
2019-03-27T11:06:51.567Z,12.67
2019-03-27T11:11:54.569Z,10.07
2019-03-27T11:16:57.547Z,9.07
2019-03-27T11:22:00.892Z,10.00
2019-03-27T11:27:04.018Z,11.47
2019-03-27T11:32:06.977Z,11.10
2019-03-27T11:37:09.967Z,11.43
2019-03-27T11:42:13.649Z,11.10
2019-03-27T11:47:17.240Z,11.10
2019-03-27T11:52:20.252Z,12.97
2019-03-27T11:57:23.333Z,10.43
2019-03-27T12:02:26.880Z,10.57
2019-03-27T12:07:29.834Z,10.97
2019-03-27T12:12:33.187Z,10.30
2019-03-27T12:17:36.504Z,9.93
2019-03-27T12:22:39.836Z,14.87
2019-03-27T12:27:43.864Z,9.10
2019-03-27T12:32:47.096Z,7.30
2019-03-27T12:37:50.488Z,10.00
2019-03-27T12:42:53.749Z,8.33
2019-03-27T12:47:56.740Z,10.30
2019-03-27T12:53:00.200Z,11.23
2019-03-27T12:58:03.652Z,6.27
2019-03-27T13:03:07.302Z,9.17
2019-03-27T13:08:10.631Z,9.07
2019-03-27T13:13:14.595Z,7.57
2019-03-27T13:18:17.542Z,6.17
2019-03-27T13:23:20.652Z,8.90
2019-03-27T13:28:23.723Z,7.57
2019-03-27T13:33:26.725Z,7.20
2019-03-27T13:38:30.391Z,5.73
2019-03-27T13:43:33.718Z,5.47
2019-03-27T13:48:37.752Z,6.30
2019-03-27T13:53:41.042Z,6.73
2019-03-27T13:58:44.355Z,5.80
2019-03-27T14:03:47.418Z,5.07
2019-03-27T14:08:50.968Z,6.37
2019-03-27T14:13:54.923Z,5.27
2019-03-27T14:18:58.404Z,5.60
2019-03-27T14:24:01.311Z,6.07
2019-03-27T14:29:04.732Z,6.60
2019-03-27T14:34:08.470Z,7.83
2019-03-27T14:39:11.642Z,7.77
2019-03-27T14:44:14.644Z,9.23
2019-03-27T14:49:18.613Z,8.73
2019-03-27T14:54:21.700Z,8.70
2019-03-27T14:59:25.025Z,9.53
2019-03-27T15:04:28.014Z,11.93
2019-03-27T15:09:31.415Z,10.13
2019-03-27T15:14:34.842Z,10.13
2019-03-27T15:19:37.804Z,9.53
2019-03-27T15:24:41.077Z,10.97
2019-03-27T15:29:44.681Z,11.13
2019-03-27T15:34:48.275Z,10.17
2019-03-27T15:39:51.455Z,11.73
2019-03-27T15:44:55.428Z,10.67
2019-03-27T15:49:58.925Z,10.13
2019-03-27T15:55:02.176Z,11.63
2019-03-27T16:00:06.578Z,9.90
2019-03-27T16:05:12.300Z,11.90
2019-03-27T16:10:18.404Z,9.77
2019-03-27T16:15:21.849Z,12.27
2019-03-27T16:20:25.449Z,12.80
2019-03-27T16:25:28.793Z,13.50
2019-03-27T16:30:32.383Z,7.17
2019-03-27T16:35:36.097Z,9.10
2019-03-27T16:40:47.564Z,13.23
2019-03-27T16:45:51.146Z,10.13
2019-03-27T16:50:55.443Z,12.23
2019-03-27T16:55:58.702Z,15.47
2019-03-27T17:01:02.988Z,9.53
2019-03-27T17:06:07.395Z,10.83
2019-03-27T17:11:11.067Z,9.77
2019-03-27T17:16:14.078Z,11.70
2019-03-27T17:21:17.085Z,11.27
2019-03-27T17:26:20.505Z,10.60
2019-03-27T17:31:24.190Z,9.23
2019-03-27T17:36:27.289Z,9.20
2019-03-27T17:41:32.553Z,8.30
2019-03-27T17:46:36.081Z,12.50
2019-03-27T17:51:40.096Z,12.53
2019-03-27T17:56:43.368Z,8.93
2019-03-27T18:01:46.617Z,12.43
2019-03-27T18:06:49.631Z,13.07
2019-03-27T18:11:53.043Z,11.27
2019-03-27T18:16:56.652Z,10.03
2019-03-27T18:22:07.507Z,10.03
2019-03-27T18:27:05.946Z,10.93
2019-03-27T18:32:10.219Z,10.47
2019-03-27T18:37:13.912Z,8.80
2019-03-27T18:42:17.328Z,10.53
2019-03-27T18:47:20.364Z,11.47
2019-03-27T18:52:24.229Z,11.50
2019-03-27T18:57:27.343Z,10.33
2019-03-27T19:02:30.405Z,7.43
2019-03-27T19:07:33.497Z,13.40
2019-03-27T19:12:37.587Z,12.87
2019-03-27T19:17:40.929Z,12.10
2019-03-27T19:22:44.040Z,12.13
2019-03-27T19:27:47.580Z,9.37
2019-03-27T19:32:50.994Z,12.07
2019-03-27T19:37:54.598Z,11.73
2019-03-27T19:42:58.881Z,9.90
2019-03-27T19:48:02.316Z,11.73
2019-03-27T19:53:05.632Z,10.20
2019-03-27T19:58:09.342Z,7.83
2019-03-27T20:03:12.585Z,8.60
2019-03-27T20:08:15.561Z,9.23
2019-03-27T20:13:18.863Z,12.63
2019-03-27T20:18:22.219Z,13.30
2019-03-27T20:23:25.897Z,10.70
2019-03-27T20:28:29.396Z,11.57
2019-03-27T20:33:32.385Z,12.47
2019-03-27T20:38:35.477Z,11.67
2019-03-27T20:43:38.791Z,13.13
2019-03-27T20:48:42.733Z,14.67
2019-03-27T20:53:46.147Z,12.90
2019-03-27T20:58:50.139Z,13.93
2019-03-27T21:03:56.105Z,11.30
2019-03-27T21:09:01.627Z,13.53
2019-03-27T21:14:06.705Z,12.47
2019-03-27T21:19:09.659Z,16.10
2019-03-27T21:24:12.665Z,14.00
2019-03-27T21:29:15.965Z,13.13
2019-03-27T21:34:19.396Z,16.30
2019-03-27T21:39:25.633Z,16.87
2019-03-27T21:44:27.254Z,12.47
2019-03-27T21:49:30.335Z,14.87
2019-03-27T21:54:34.473Z,14.10
2019-03-27T21:59:37.844Z,14.87
2019-03-27T22:04:41.029Z,14.80
2019-03-27T22:09:45.021Z,13.37
2019-03-27T22:14:50.431Z,14.47
2019-03-27T22:19:53.791Z,13.57
2019-03-27T22:24:56.872Z,13.10
2019-03-27T22:30:01.775Z,13.80
2019-03-27T22:35:05.772Z,15.23
2019-03-27T22:40:09.038Z,12.37
2019-03-27T22:45:12.922Z,14.70
2019-03-27T22:50:16.204Z,13.63
2019-03-27T22:55:19.792Z,13.90
2019-03-27T23:00:31.363Z,14.07
2019-03-27T23:05:36.765Z,12.40
2019-03-27T23:10:40.395Z,13.07
2019-03-27T23:15:45.610Z,12.03
2019-03-27T23:20:48.812Z,11.07
2019-03-27T23:26:02.563Z,11.60
2019-03-27T23:30:57.799Z,11.30
2019-03-27T23:36:01.758Z,12.80
2019-03-27T23:41:05.542Z,9.63
2019-03-27T23:46:08.788Z,10.07
2019-03-27T23:51:12.644Z,10.70
2019-03-27T23:56:17.141Z,9.37
